Time;durP1;ratioP1;P1;durP2;ratioP2;P2;SDS_P1;SDS_P2;PMS_P1;PMS_P2;Temp;Humidity;BMP_temperature;BMP_pressure;BME280_temperature;BME280_humidity;BME280_pressure;Samples;Min_cycle;Max_cycle;Signal;HPM_P1;HPM_P2
2022/01/18 00:01:25;;;;;;;46.42;6.70;;;5.80;99.90;;;;;;4941762;28;20039;-88
2022/01/18 00:03:50;;;;;;;27.63;4.57;;;5.90;99.90;;;;;;4912841;28;20646;-88
2022/01/18 00:06:16;;;;;;;37.17;4.72;;;5.90;99.90;;;;;;4939663;28;20122;-88
2022/01/18 00:08:42;;;;;;;37.58;5.45;;;5.90;99.90;;;;;;4927593;28;20109;-88
2022/01/18 00:11:07;;;;;;;28.88;3.97;;;5.90;99.90;;;;;;4930122;28;20035;-88
2022/01/18 00:18:31;;;;;;;29.20;4.80;;;5.90;99.90;;;;;;4931078;28;20116;-88
2022/01/18 00:23:35;;;;;;;23.85;4.35;;;5.90;99.90;;;;;;4959632;28;20413;-88
2022/01/18 00:26:00;;;;;;;41.70;5.60;;;5.90;99.90;;;;;;4919709;28;20414;-88
2022/01/18 00:28:27;;;;;;;26.55;5.03;;;5.80;99.90;;;;;;4945742;28;20119;-87
2022/01/18 00:33:38;;;;;;;32.05;6.13;;;5.80;99.90;;;;;;4947647;28;20037;-88
2022/01/18 00:36:09;;;;;;;31.05;4.25;;;5.70;99.90;;;;;;4934262;28;20039;-88
2022/01/18 00:38:46;;;;;;;32.53;3.88;;;5.80;99.90;;;;;;4929734;28;20035;-88
2022/01/18 00:41:12;;;;;;;26.35;4.40;;;5.90;99.90;;;;;;4934754;28;20550;-88
2022/01/18 00:43:38;;;;;;;31.55;4.25;;;5.90;99.90;;;;;;4931004;28;20039;-88
2022/01/18 00:46:03;;;;;;;26.05;5.60;;;5.90;99.90;;;;;;4933471;28;20551;-88
2022/01/18 00:48:34;;;;;;;22.17;4.22;;;5.90;99.90;;;;;;4935455;28;20033;-88
2022/01/18 00:51:00;;;;;;;25.33;5.28;;;5.90;99.90;;;;;;4931438;28;20555;-88
2022/01/18 00:53:30;;;;;;;26.20;4.35;;;5.90;99.90;;;;;;4936582;28;20098;-89
2022/01/18 00:58:53;;;;;;;34.17;4.25;;;5.90;99.90;;;;;;4943047;28;20086;-88
2022/01/18 01:01:21;;;;;;;35.28;5.00;;;5.90;99.90;;;;;;4933559;28;20031;-88
2022/01/18 01:03:47;;;;;;;22.27;3.47;;;5.90;99.90;;;;;;4932722;28;20027;-88
2022/01/18 01:06:13;;;;;;;22.25;4.07;;;5.90;99.90;;;;;;4936675;28;20050;-89
2022/01/18 01:08:38;;;;;;;23.98;5.43;;;5.90;99.90;;;;;;4935720;28;20591;-89
2022/01/18 01:11:04;;;;;;;29.67;4.28;;;5.80;99.90;;;;;;4929330;28;20023;-88
2022/01/18 01:13:31;;;;;;;15.27;2.90;;;5.80;99.90;;;;;;4944061;28;20502;-89
2022/01/18 01:45:40;;;;;;;32.55;4.07;;;5.90;99.90;;;;;;4944471;28;20039;-88
2022/01/18 01:48:05;;;;;;;16.67;3.20;;;5.90;99.90;;;;;;4933422;28;20034;-88
2022/01/18 01:50:43;;;;;;;30.27;4.97;;;5.90;99.90;;;;;;4929551;28;20039;-87
2022/01/18 01:53:09;;;;;;;23.77;4.75;;;5.90;99.90;;;;;;4933064;28;20411;-88
2022/01/18 01:55:34;;;;;;;38.30;4.63;;;6.00;99.90;;;;;;4930645;28;20107;-88
2022/01/18 01:58:00;;;;;;;28.63;4.65;;;5.90;99.90;;;;;;4929837;28;20046;-87
2022/01/18 02:00:25;;;;;;;27.73;4.95;;;5.90;99.90;;;;;;4948168;28;20035;-88
2022/01/18 02:02:51;;;;;;;21.48;3.78;;;5.90;99.90;;;;;;4936656;28;20392;-88
2022/01/18 02:05:17;;;;;;;23.27;4.85;;;5.80;99.90;;;;;;4944048;28;20384;-88
2022/01/18 02:07:42;;;;;;;32.50;5.68;;;5.90;99.90;;;;;;4930800;28;20761;-88
2022/01/18 02:10:10;;;;;;;21.73;3.95;;;6.00;99.90;;;;;;4933147;28;20034;-88
2022/01/18 02:12:35;;;;;;;45.75;7.00;;;5.90;99.90;;;;;;4939207;28;20047;-88
2022/01/18 02:15:10;;;;;;;46.78;4.85;;;5.90;99.90;;;;;;4928459;28;20054;-87
2022/01/18 02:23:15;;;;;;;25.83;4.10;;;5.80;99.90;;;;;;4944369;28;20042;-88
2022/01/18 02:25:41;;;;;;;29.20;4.57;;;5.80;99.90;;;;;;4933522;28;20499;-88
2022/01/18 02:28:07;;;;;;;31.80;5.25;;;5.90;99.90;;;;;;4940464;28;20042;-88
2022/01/18 02:30:32;;;;;;;41.70;6.00;;;5.90;99.90;;;;;;4926378;28;20031;-88
2022/01/18 02:32:58;;;;;;;23.90;3.58;;;5.90;99.90;;;;;;4926988;28;20020;-88
2022/01/18 02:35:23;;;;;;;28.85;4.35;;;5.90;99.90;;;;;;4944235;28;20019;-88
2022/01/18 02:37:55;;;;;;;11.95;2.65;;;6.00;99.90;;;;;;4931648;28;20027;-87
2022/01/18 02:40:20;;;;;;;16.65;2.25;;;6.00;99.90;;;;;;4930058;28;20665;-88
2022/01/18 02:42:56;;;;;;;32.67;4.10;;;6.00;99.90;;;;;;4942004;28;20514;-88
2022/01/18 02:45:22;;;;;;;29.30;3.90;;;6.00;99.90;;;;;;4942258;28;20473;-88
2022/01/18 02:47:47;;;;;;;33.55;3.95;;;6.00;99.90;;;;;;4931830;28;20081;-88
2022/01/18 02:50:13;;;;;;;27.17;4.70;;;5.90;99.90;;;;;;4943208;28;20055;-88
2022/01/18 02:52:38;;;;;;;26.20;3.45;;;5.90;99.90;;;;;;4960155;28;20019;-87
2022/01/18 02:55:04;;;;;;;43.40;4.70;;;5.80;99.90;;;;;;4932655;28;20753;-88
2022/01/18 02:57:31;;;;;;;28.05;3.80;;;6.00;99.90;;;;;;4941854;28;20468;-88
2022/01/18 03:00:26;;;;;;;33.25;3.63;;;5.90;99.90;;;;;;4930790;28;20031;-88
2022/01/18 03:05:26;;;;;;;18.42;2.50;;;5.90;99.90;;;;;;4946843;28;20099;-89
2022/01/18 03:07:52;;;;;;;37.63;6.53;;;6.00;99.90;;;;;;4927506;28;20118;-88
2022/01/18 03:10:17;;;;;;;26.40;3.65;;;5.90;99.90;;;;;;4927627;28;20170;-88
2022/01/18 03:12:43;;;;;;;22.02;4.03;;;5.90;99.90;;;;;;4888258;28;1185644;-88
2022/01/18 03:15:09;;;;;;;37.53;7.30;;;5.90;99.90;;;;;;4933650;28;20120;-88
2022/01/18 03:17:35;;;;;;;25.40;3.83;;;5.90;99.90;;;;;;4932112;28;20043;-88
2022/01/18 03:20:02;;;;;;;29.00;5.22;;;5.90;99.90;;;;;;4932314;28;20042;-88
2022/01/18 03:22:28;;;;;;;23.13;3.67;;;5.90;99.90;;;;;;4933230;28;20094;-88
2022/01/18 03:30:05;;;;;;;12.90;2.60;;;5.90;99.90;;;;;;4931855;28;20054;-88
2022/01/18 03:32:30;;;;;;;29.85;4.30;;;5.90;99.90;;;;;;4928400;28;20035;-88
2022/01/18 03:34:56;;;;;;;28.73;4.13;;;5.90;99.90;;;;;;4929462;28;20036;-88
2022/01/18 03:37:21;;;;;;;26.67;4.07;;;5.90;99.90;;;;;;4928216;28;20125;-86
2022/01/18 03:39:47;;;;;;;27.90;4.15;;;6.00;99.90;;;;;;4925115;28;20032;-86
2022/01/18 03:44:42;;;;;;;25.73;3.95;;;5.90;99.90;;;;;;4941812;28;20084;-85
2022/01/18 03:47:07;;;;;;;35.38;4.55;;;5.90;99.90;;;;;;4930784;28;20042;-85
2022/01/18 03:49:36;;;;;;;26.83;4.82;;;5.90;99.90;;;;;;4942197;28;20058;-86
2022/01/18 03:52:02;;;;;;;28.80;3.95;;;5.90;99.90;;;;;;4926157;28;20034;-85
2022/01/18 03:54:27;;;;;;;22.98;3.53;;;5.90;99.90;;;;;;4943656;28;20042;-86
2022/01/18 03:56:53;;;;;;;20.45;2.55;;;5.90;99.90;;;;;;4943330;28;20126;-85
2022/01/18 03:59:18;;;;;;;22.35;3.55;;;5.90;99.90;;;;;;4939013;28;20110;-86
2022/01/18 04:01:44;;;;;;;25.02;3.65;;;5.80;99.90;;;;;;4925100;28;20039;-88
2022/01/18 04:04:09;;;;;;;15.65;3.05;;;5.90;99.90;;;;;;4936702;28;20027;-88
2022/01/18 04:06:35;;;;;;;19.30;2.63;;;5.90;99.90;;;;;;4930243;28;20037;-87
2022/01/18 04:09:00;;;;;;;28.17;3.45;;;5.80;99.90;;;;;;4923243;28;20115;-88
2022/01/18 04:11:27;;;;;;;28.60;3.70;;;5.90;99.90;;;;;;4943880;28;20118;-88
2022/01/18 04:13:52;;;;;;;31.02;3.80;;;5.80;99.90;;;;;;4931666;28;20035;-88
2022/01/18 04:16:18;;;;;;;25.23;2.88;;;5.80;99.90;;;;;;4929990;28;20549;-88
2022/01/18 04:19:00;;;;;;;23.25;3.13;;;5.80;99.90;;;;;;4930951;28;20376;-88
2022/01/18 04:26:57;;;;;;;22.05;3.70;;;5.80;99.90;;;;;;4945497;28;20077;-88
2022/01/18 04:29:23;;;;;;;21.65;3.55;;;5.80;99.90;;;;;;4929860;28;20030;-88
2022/01/18 04:31:49;;;;;;;23.33;3.30;;;5.80;99.90;;;;;;4930595;28;20042;-88
2022/01/18 04:34:14;;;;;;;12.85;2.47;;;5.80;99.90;;;;;;4932416;28;20023;-88
2022/01/18 04:36:40;;;;;;;19.70;3.20;;;5.80;99.90;;;;;;4944824;28;20122;-88
2022/01/18 04:39:05;;;;;;;22.77;3.33;;;5.70;99.90;;;;;;4931065;28;20054;-88
2022/01/18 04:41:32;;;;;;;17.23;2.25;;;5.70;99.90;;;;;;4931744;28;20034;-88
2022/01/18 04:49:07;;;;;;;16.52;2.45;;;5.70;99.90;;;;;;4944548;28;20070;-88
2022/01/18 04:51:33;;;;;;;13.20;3.45;;;5.70;99.90;;;;;;4944148;28;20075;-88
2022/01/18 04:54:02;;;;;;;22.85;2.50;;;5.60;99.90;;;;;;4930504;28;20058;-88
2022/01/18 04:58:54;;;;;;;12.48;2.05;;;5.60;99.90;;;;;;4944432;28;20086;-87
2022/01/18 05:01:20;;;;;;;13.73;2.88;;;5.60;99.90;;;;;;4935082;28;20031;-88
2022/01/18 05:03:45;;;;;;;12.98;2.17;;;5.60;99.90;;;;;;4934837;28;20459;-88
2022/01/18 05:06:15;;;;;;;20.63;2.35;;;5.60;99.90;;;;;;4941093;28;20034;-87
2022/01/18 05:08:41;;;;;;;14.20;2.88;;;5.60;99.90;;;;;;4930900;28;20118;-88
2022/01/18 05:11:08;;;;;;;15.80;2.55;;;5.70;99.90;;;;;;4934988;28;20126;-88
2022/01/18 05:21:27;;;;;;;26.52;3.50;;;5.70;99.90;;;;;;4944321;28;20046;-88
2022/01/18 05:23:52;;;;;;;21.45;4.63;;;5.60;99.90;;;;;;4932937;28;20026;-88
2022/01/18 05:26:18;;;;;;;33.00;5.35;;;5.70;99.90;;;;;;4929594;28;20047;-88
2022/01/18 05:28:44;;;;;;;35.83;6.03;;;5.80;99.90;;;;;;4933260;28;20114;-88
2022/01/18 05:31:11;;;;;;;21.60;4.90;;;5.60;99.90;;;;;;4932570;28;20090;-88
2022/01/18 05:33:38;;;;;;;16.58;4.18;;;5.70;99.90;;;;;;4931232;28;20043;-88
2022/01/18 05:36:10;;;;;;;23.38;4.78;;;5.70;99.90;;;;;;4930712;28;20042;-88
2022/01/18 05:38:36;;;;;;;30.55;5.43;;;5.70;99.90;;;;;;4946804;28;20126;-88
2022/01/18 05:41:06;;;;;;;31.77;6.70;;;5.70;99.90;;;;;;4942666;28;20065;-87
2022/01/18 05:43:32;;;;;;;28.20;6.28;;;5.70;99.90;;;;;;4930935;28;20034;-88
2022/01/18 05:45:57;;;;;;;31.63;6.25;;;5.70;99.90;;;;;;4935305;28;20038;-88
2022/01/18 05:48:23;;;;;;;42.72;6.85;;;5.70;99.90;;;;;;4927718;28;20051;-88
2022/01/18 05:50:49;;;;;;;25.17;5.13;;;5.70;99.90;;;;;;4930811;28;20054;-88
2022/01/18 05:53:15;;;;;;;32.88;6.78;;;5.70;99.90;;;;;;4957204;28;20573;-88
2022/01/18 05:55:40;;;;;;;25.55;6.47;;;5.70;99.90;;;;;;4932665;28;20027;-86
2022/01/18 05:58:06;;;;;;;36.92;6.70;;;5.70;99.90;;;;;;4933481;28;20471;-87
2022/01/18 06:00:32;;;;;;;18.52;4.25;;;5.80;99.90;;;;;;4942378;28;20041;-87
2022/01/18 06:08:08;;;;;;;26.27;6.80;;;5.80;99.90;;;;;;4944628;28;20090;-88
2022/01/18 06:10:33;;;;;;;26.10;6.40;;;5.80;99.90;;;;;;4932099;28;20396;-88
2022/01/18 06:13:03;;;;;;;27.60;6.35;;;5.70;99.90;;;;;;4931829;28;20380;-88
2022/01/18 06:15:29;;;;;;;23.33;5.43;;;5.80;99.90;;;;;;4929572;28;20113;-88
2022/01/18 06:17:55;;;;;;;25.55;5.13;;;5.80;99.90;;;;;;4943389;28;20530;-88
2022/01/18 06:20:21;;;;;;;28.10;7.05;;;5.80;99.90;;;;;;4928553;28;20058;-88
2022/01/18 06:22:46;;;;;;;46.03;9.23;;;5.70;99.90;;;;;;4927936;28;20058;-87
2022/01/18 06:25:12;;;;;;;43.00;9.10;;;5.80;99.90;;;;;;4933588;28;20031;-87
2022/01/18 06:27:38;;;;;;;43.17;10.82;;;5.80;99.90;;;;;;4928605;28;20030;-88
2022/01/18 06:30:07;;;;;;;37.33;10.15;;;5.70;99.90;;;;;;4928373;28;20171;-88
2022/01/18 06:32:32;;;;;;;33.55;9.55;;;5.60;99.90;;;;;;4927194;28;20499;-88
2022/01/18 06:34:58;;;;;;;33.33;8.32;;;5.70;99.90;;;;;;4909097;28;20114;-88
2022/01/18 06:37:23;;;;;;;39.80;10.30;;;5.80;99.90;;;;;;4927409;28;20047;-88
2022/01/18 06:39:49;;;;;;;27.20;8.13;;;5.70;99.90;;;;;;4934751;28;20051;-88
2022/01/18 06:42:14;;;;;;;34.97;8.48;;;5.70;99.90;;;;;;4939692;28;20038;-88
2022/01/18 06:44:40;;;;;;;44.92;9.93;;;5.70;99.90;;;;;;4940638;28;20036;-88
2022/01/18 06:47:06;;;;;;;31.77;6.78;;;5.70;99.90;;;;;;4930073;28;20515;-88
2022/01/18 06:49:32;;;;;;;21.80;6.68;;;5.70;99.90;;;;;;4916919;28;20081;-88
2022/01/18 06:51:58;;;;;;;46.95;10.65;;;5.70;99.90;;;;;;4946840;28;20042;-88
2022/01/18 06:54:24;;;;;;;41.17;10.10;;;5.70;99.90;;;;;;4927030;28;20473;-88
2022/01/18 06:56:50;;;;;;;40.75;11.30;;;5.70;99.90;;;;;;4928339;28;20123;-88
2022/01/18 06:59:23;;;;;;;23.10;7.25;;;5.60;99.90;;;;;;4932725;28;20089;-88
2022/01/18 07:02:03;;;;;;;46.92;10.65;;;5.70;99.90;;;;;;4893440;28;20039;-88
2022/01/18 07:05:22;;;;;;;47.35;11.13;;;5.70;99.90;;;;;;4885430;28;20044;-89
2022/01/18 07:07:47;;;;;;;24.40;7.97;;;5.70;99.90;;;;;;4881574;28;20039;-89
2022/01/18 07:10:29;;;;;;;42.33;12.85;;;5.70;99.90;;;;;;4908038;28;20050;-88
2022/01/18 07:16:21;;;;;;;46.35;12.05;;;5.70;99.90;;;;;;4909456;28;20046;-89
2022/01/18 07:18:53;;;;;;;42.38;11.85;;;5.80;99.90;;;;;;4910470;28;20495;-88
2022/01/18 07:21:19;;;;;;;46.33;9.88;;;5.70;99.90;;;;;;4882647;28;20031;-88
2022/01/18 07:23:58;;;;;;;;;;;;;;;;;;;;;
2022/01/18 07:26:39;;;;;;;38.85;13.45;;;5.70;99.90;;;;;;4952126;28;20039;-89
2022/01/18 07:29:04;;;;;;;52.97;13.27;;;5.70;99.90;;;;;;4896383;28;20126;-90
2022/01/18 07:31:42;;;;;;;40.78;11.10;;;5.70;99.90;;;;;;4905764;28;20055;-89
2022/01/18 07:34:09;;;;;;;47.08;12.98;;;5.70;99.90;;;;;;4927995;28;20070;-89
2022/01/18 07:36:34;;;;;;;49.42;13.48;;;5.70;99.90;;;;;;4942011;28;22810;-89
2022/01/18 07:39:00;;;;;;;52.75;13.30;;;5.80;99.90;;;;;;4927852;28;20065;-89
2022/01/18 07:41:25;;;;;;;29.35;9.25;;;5.80;99.90;;;;;;4931328;28;20383;-89
2022/01/18 07:43:51;;;;;;;44.25;12.73;;;5.80;99.90;;;;;;4925883;28;20057;-90
2022/01/18 07:46:17;;;;;;;24.65;6.22;;;5.80;99.90;;;;;;4929907;28;20505;-89
2022/01/18 07:48:42;;;;;;;22.15;6.78;;;5.70;99.90;;;;;;4944110;28;20134;-89
2022/01/18 07:51:08;;;;;;;32.13;10.48;;;5.80;99.90;;;;;;4929692;28;20081;-90
2022/01/18 07:53:33;;;;;;;25.73;8.13;;;5.70;99.90;;;;;;4933079;28;20042;-89
2022/01/18 07:55:59;;;;;;;29.17;10.25;;;5.80;99.90;;;;;;4927586;28;20070;-89
2022/01/18 07:58:24;;;;;;;50.20;13.43;;;5.80;99.90;;;;;;4941235;28;20027;-89
2022/01/18 08:00:50;;;;;;;60.60;15.10;;;5.80;99.90;;;;;;4931962;28;20114;-89
2022/01/18 08:03:16;;;;;;;63.63;16.58;;;5.80;99.90;;;;;;4930705;28;20456;-88
2022/01/18 08:05:42;;;;;;;51.10;13.80;;;5.80;99.90;;;;;;4929302;28;20034;-89
2022/01/18 08:08:07;;;;;;;32.92;9.60;;;5.80;99.90;;;;;;4931159;28;20038;-89
2022/01/18 08:10:33;;;;;;;36.97;10.98;;;5.90;99.90;;;;;;4944553;28;20027;-89
2022/01/18 08:13:02;;;;;;;57.38;15.05;;;5.80;99.90;;;;;;4915236;28;20042;-88
2022/01/18 08:15:38;;;;;;;55.35;14.93;;;5.90;99.90;;;;;;4925541;28;20476;-89
2022/01/18 08:18:09;;;;;;;49.50;14.80;;;5.90;99.90;;;;;;4917820;28;20562;-89
2022/01/18 08:20:34;;;;;;;56.50;17.60;;;5.90;99.90;;;;;;4927748;28;20043;-89
2022/01/18 08:23:00;;;;;;;54.28;17.00;;;6.00;99.90;;;;;;4940586;28;20023;-88
2022/01/18 08:25:26;;;;;;;51.08;16.33;;;5.90;99.90;;;;;;4944653;28;20039;-89
2022/01/18 08:27:51;;;;;;;45.50;15.50;;;6.00;99.90;;;;;;4928697;28;20034;-88
2022/01/18 08:30:18;;;;;;;62.15;15.98;;;6.00;99.90;;;;;;4940913;28;20031;-88
2022/01/18 08:32:44;;;;;;;61.08;16.15;;;6.00;99.90;;;;;;4934883;28;20050;-89
2022/01/18 08:35:10;;;;;;;34.05;13.75;;;6.10;99.90;;;;;;4941705;28;20023;-89
2022/01/18 08:37:41;;;;;;;42.00;13.93;;;6.10;99.90;;;;;;4934163;28;20046;-89
2022/01/18 08:40:07;;;;;;;43.42;12.60;;;6.10;99.90;;;;;;4931428;28;20139;-89
2022/01/18 08:42:33;;;;;;;55.45;14.27;;;6.20;99.90;;;;;;4930608;28;20048;-89
2022/01/18 08:44:59;;;;;;;45.95;13.95;;;6.20;99.90;;;;;;4931699;28;20038;-88
2022/01/18 08:47:24;;;;;;;43.28;13.70;;;6.20;99.90;;;;;;4932657;28;20044;-89
2022/01/18 08:49:50;;;;;;;51.38;13.13;;;6.20;99.90;;;;;;4943320;28;20447;-88
2022/01/18 08:52:16;;;;;;;23.83;8.57;;;6.20;99.90;;;;;;4965597;28;20507;-88
2022/01/18 08:54:43;;;;;;;26.80;9.38;;;6.30;99.90;;;;;;4947112;28;20038;-88
2022/01/18 08:57:10;;;;;;;24.58;8.27;;;6.30;99.90;;;;;;4930881;28;20043;-88
2022/01/18 08:59:36;;;;;;;20.95;8.40;;;6.30;99.90;;;;;;4931229;28;20146;-88
2022/01/18 09:02:05;;;;;;;29.90;10.95;;;6.40;99.90;;;;;;4924719;28;20623;-89
2022/01/18 09:04:31;;;;;;;30.40;11.15;;;6.50;99.90;;;;;;4913809;28;20066;-88
2022/01/18 09:06:57;;;;;;;40.55;12.57;;;6.50;99.90;;;;;;4929856;28;20796;-88
2022/01/18 09:09:23;;;;;;;60.95;17.67;;;6.50;99.90;;;;;;4931229;28;20087;-89
2022/01/18 09:11:48;;;;;;;48.35;14.15;;;6.50;99.90;;;;;;4924885;28;20040;-87
2022/01/18 09:14:17;;;;;;;25.73;10.82;;;6.50;99.90;;;;;;4941662;28;20039;-88
2022/01/18 09:16:43;;;;;;;24.38;8.65;;;6.60;99.90;;;;;;4920613;29;20670;-88
2022/01/18 09:19:09;;;;;;;47.28;17.90;;;6.60;99.90;;;;;;4919283;28;20091;-88
2022/01/18 09:21:34;;;;;;;62.78;19.92;;;6.70;99.90;;;;;;4934832;28;20039;-88
2022/01/18 09:24:00;;;;;;;58.83;18.25;;;6.80;99.90;;;;;;4928089;28;20078;-88
2022/01/18 09:26:26;;;;;;;20.67;9.23;;;6.80;99.90;;;;;;4942809;28;20104;-88
2022/01/18 09:28:52;;;;;;;25.00;9.45;;;6.80;99.90;;;;;;4934461;28;20031;-88
2022/01/18 09:31:19;;;;;;;30.20;10.82;;;6.80;99.90;;;;;;4932821;28;20074;-88
2022/01/18 09:33:44;;;;;;;29.55;12.25;;;6.80;99.90;;;;;;4919699;28;20404;-88
2022/01/18 09:36:10;;;;;;;28.17;9.80;;;6.90;99.90;;;;;;4944743;28;20046;-89
2022/01/18 09:38:35;;;;;;;53.20;18.05;;;6.90;99.90;;;;;;4954677;28;20467;-89
2022/01/18 09:41:08;;;;;;;63.00;20.08;;;7.00;99.90;;;;;;4929041;28;20503;-88
2022/01/18 09:43:34;;;;;;;41.70;14.60;;;7.00;99.90;;;;;;4931158;28;20042;-89
2022/01/18 09:46:00;;;;;;;50.42;17.23;;;7.10;99.90;;;;;;4917388;28;20038;-88
2022/01/18 09:48:26;;;;;;;69.97;22.98;;;7.10;99.90;;;;;;4926634;28;20061;-88
2022/01/18 09:50:52;;;;;;;67.07;22.67;;;7.30;99.90;;;;;;4938254;28;20026;-88
2022/01/18 09:53:17;;;;;;;51.92;21.88;;;7.40;99.90;;;;;;4939070;28;20035;-89
2022/01/18 09:55:43;;;;;;;35.50;16.45;;;7.40;99.90;;;;;;4929720;28;20509;-89
2022/01/18 09:58:09;;;;;;;41.75;16.83;;;7.50;99.90;;;;;;4924863;28;20035;-89
2022/01/18 10:00:38;;;;;;;37.47;16.98;;;7.50;99.90;;;;;;4927961;28;20382;-88
2022/01/18 10:03:09;;;;;;;59.75;21.23;;;7.60;99.90;;;;;;4941238;28;20518;-88
2022/01/18 10:05:35;;;;;;;60.15;19.10;;;7.70;99.90;;;;;;4931414;28;20031;-88
2022/01/18 10:08:12;;;;;;;46.17;15.68;;;7.80;99.90;;;;;;4921944;28;20050;-88
2022/01/18 10:10:45;;;;;;;41.92;14.75;;;7.80;99.90;;;;;;4930695;28;20069;-87
2022/01/18 10:13:23;;;;;;;50.08;14.57;;;7.80;99.90;;;;;;4931056;28;20439;-88
2022/01/18 10:16:11;;;;;;;35.78;13.85;;;7.90;99.90;;;;;;4939937;28;20085;-88
2022/01/18 10:18:48;;;;;;;48.30;14.85;;;8.00;99.90;;;;;;4944779;28;20032;-88
2022/01/18 10:21:47;;;;;;;35.90;12.93;;;8.10;99.90;;;;;;4953966;28;20055;-87
2022/01/18 10:24:25;;;;;;;44.60;14.07;;;8.20;99.90;;;;;;4927310;28;20031;-87
2022/01/18 10:26:52;;;;;;;39.35;13.93;;;8.20;99.90;;;;;;4925135;28;20030;-88
2022/01/18 10:29:32;;;;;;;36.78;13.07;;;8.20;99.90;;;;;;4894284;29;20092;-87
2022/01/18 10:31:59;;;;;;;38.58;14.57;;;8.20;99.90;;;;;;4915288;28;20834;-88
2022/01/18 10:37:02;;;;;;;40.92;14.35;;;8.40;99.90;;;;;;4943824;28;20039;-88
2022/01/18 10:39:29;;;;;;;40.65;14.77;;;8.40;99.90;;;;;;4933933;28;20436;-87
2022/01/18 10:41:55;;;;;;;39.15;14.18;;;8.50;99.90;;;;;;4908043;28;20038;-87
2022/01/18 10:44:24;;;;;;;30.38;11.50;;;8.60;99.90;;;;;;4929297;28;20027;-87
2022/01/18 10:46:57;;;;;;;35.33;14.27;;;8.60;99.90;;;;;;4900638;29;20031;-87
2022/01/18 10:49:29;;;;;;;33.22;13.10;;;8.70;99.90;;;;;;4935842;28;20050;-87
2022/01/18 10:52:18;;;;;;;28.10;13.40;;;8.70;99.90;;;;;;4929883;28;20521;-87
2022/01/18 10:54:44;;;;;;;40.42;13.65;;;8.80;99.90;;;;;;4927838;28;20085;-87
2022/01/18 10:57:12;;;;;;;31.15;12.15;;;8.90;99.90;;;;;;4936800;28;20034;-87
2022/01/18 10:59:38;;;;;;;23.00;11.05;;;9.00;99.90;;;;;;4929124;28;20035;-87
2022/01/18 11:02:16;;;;;;;37.70;14.35;;;8.80;99.90;;;;;;4926902;28;20038;-87
2022/01/18 11:04:57;;;;;;;24.48;12.05;;;8.90;99.90;;;;;;4950191;28;20058;-87
2022/01/18 11:07:27;;;;;;;19.52;10.40;;;9.00;99.90;;;;;;4932377;28;20139;-87
2022/01/18 11:10:05;;;;;;;29.27;11.93;;;8.90;99.90;;;;;;4929115;28;20034;-87
2022/01/18 11:12:43;;;;;;;24.77;11.57;;;9.00;99.90;;;;;;4915312;28;20491;-87
2022/01/18 11:15:15;;;;;;;35.63;15.88;;;9.00;99.90;;;;;;4927052;28;20043;-87
2022/01/18 11:17:43;;;;;;;38.08;16.33;;;9.10;99.90;;;;;;4929575;28;20034;-87
2022/01/18 11:20:09;;;;;;;26.42;13.00;;;9.20;99.90;;;;;;4927478;28;20043;-87
2022/01/18 11:22:35;;;;;;;28.48;12.90;;;9.10;99.90;;;;;;4930998;28;20035;-87
2022/01/18 11:25:03;;;;;;;27.13;12.70;;;9.00;99.90;;;;;;4936114;28;20046;-87
2022/01/18 11:27:30;;;;;;;25.33;11.48;;;9.10;99.90;;;;;;4937459;28;20043;-88
2022/01/18 11:29:56;;;;;;;20.65;10.88;;;9.10;99.90;;;;;;4928128;28;20038;-87
2022/01/18 11:32:25;;;;;;;34.55;14.45;;;9.10;99.90;;;;;;4943346;28;20046;-87
2022/01/18 11:35:26;;;;;;;29.75;13.65;;;9.20;99.90;;;;;;4913530;28;20605;-87
2022/01/18 11:37:56;;;;;;;32.75;14.27;;;9.20;99.90;;;;;;4923539;28;20031;-87
2022/01/18 11:40:23;;;;;;;30.75;14.15;;;9.20;99.90;;;;;;4943032;28;20565;-87
2022/01/18 11:42:52;;;;;;;20.77;10.45;;;9.20;99.90;;;;;;4929517;28;20035;-87
2022/01/18 11:45:29;;;;;;;32.20;13.88;;;9.20;99.90;;;;;;4915553;28;20035;-87
2022/01/18 11:48:11;;;;;;;36.33;16.42;;;9.20;99.90;;;;;;4938088;28;20027;-87
2022/01/18 11:50:49;;;;;;;36.55;16.92;;;9.40;99.90;;;;;;4945792;28;20050;-87
2022/01/18 11:56:09;;;;;;;40.55;14.18;;;9.30;99.90;;;;;;4927891;28;20151;-88
2022/01/18 11:58:35;;;;;;;33.38;14.82;;;9.40;99.90;;;;;;4926205;28;20700;-88
2022/01/18 12:01:03;;;;;;;37.53;13.70;;;9.50;99.90;;;;;;4939506;28;20089;-88
2022/01/18 12:03:30;;;;;;;24.98;12.50;;;9.50;99.90;;;;;;4927682;28;20035;-88
2022/01/18 12:06:00;;;;;;;29.85;12.13;;;9.60;99.90;;;;;;4913179;28;20038;-88
2022/01/18 12:08:32;;;;;;;36.80;14.02;;;9.60;99.90;;;;;;4948242;28;20051;-87
2022/01/18 12:10:58;;;;;;;38.42;13.07;;;9.60;99.90;;;;;;4941665;28;20302;-88
2022/01/18 12:13:32;;;;;;;27.95;13.00;;;9.60;99.90;;;;;;4935876;28;20400;-87
2022/01/18 12:15:59;;;;;;;36.10;14.88;;;9.60;99.90;;;;;;4909624;28;20031;-87
2022/01/18 12:18:26;;;;;;;46.45;16.10;;;9.70;99.90;;;;;;4915326;28;20039;-87
2022/01/18 12:20:53;;;;;;;26.27;14.68;;;9.70;99.90;;;;;;4918334;28;20028;-87
2022/01/18 12:23:21;;;;;;;46.90;17.50;;;9.70;99.90;;;;;;4946217;28;20031;-87
2022/01/18 12:25:57;;;;;;;26.45;15.32;;;9.70;99.90;;;;;;4945379;28;20388;-88
2022/01/18 12:37:07;;;;;;;29.42;14.00;;;9.90;99.90;;;;;;4960219;28;20121;-87
2022/01/18 12:45:03;;;;;;;22.13;11.35;;;9.90;99.90;;;;;;4938630;28;20093;-87
2022/01/18 12:47:29;;;;;;;34.90;15.98;;;10.00;99.90;;;;;;4959682;28;20265;-87
2022/01/18 12:49:55;;;;;;;28.88;12.68;;;9.90;99.90;;;;;;4950751;28;20106;-87
2022/01/18 12:52:20;;;;;;;29.00;14.45;;;10.00;99.90;;;;;;4930782;28;20391;-88
2022/01/18 12:54:48;;;;;;;37.90;18.67;;;10.00;99.90;;;;;;4903801;28;20056;-87
2022/01/18 12:57:14;;;;;;;34.13;15.50;;;10.10;99.90;;;;;;4903978;28;20034;-87
2022/01/18 12:59:59;;;;;;;40.80;18.13;;;10.10;99.90;;;;;;4931389;28;20771;-87
2022/01/18 13:02:25;;;;;;;38.58;17.70;;;10.10;99.90;;;;;;4891583;29;20025;-87
2022/01/18 13:05:04;;;;;;;48.42;17.42;;;10.20;99.90;;;;;;4924813;28;20045;-87
2022/01/18 13:07:45;;;;;;;40.63;17.88;;;10.20;99.90;;;;;;4931577;28;20035;-87
2022/01/18 13:10:12;;;;;;;35.45;17.88;;;10.20;99.90;;;;;;4932516;28;20507;-87
2022/01/18 13:12:45;;;;;;;42.65;18.60;;;10.20;99.90;;;;;;4926603;28;20066;-87
2022/01/18 13:15:23;;;;;;;52.05;22.10;;;10.10;99.90;;;;;;4931523;28;20499;-88
2022/01/18 13:23:25;;;;;;;45.42;21.17;;;10.20;99.90;;;;;;4923821;28;20042;-87
2022/01/18 13:25:58;;;;;;;42.78;19.05;;;10.30;99.90;;;;;;4917480;28;20027;-87
2022/01/18 13:28:33;;;;;;;40.50;18.58;;;10.10;99.90;;;;;;4934709;28;20066;-88
2022/01/18 13:31:50;;;;;;;47.83;22.67;;;10.20;99.90;;;;;;4917049;28;20034;-87
2022/01/18 13:34:16;;;;;;;46.63;21.63;;;10.20;99.90;;;;;;4948383;28;20146;-88
2022/01/18 13:37:29;;;;;;;;;;;;;;;;;;;;;
2022/01/18 13:40:36;;;;;;;52.22;21.80;;;10.20;99.90;;;;;;4895404;28;20424;-88
2022/01/18 13:43:09;;;;;;;53.75;20.08;;;10.20;99.90;;;;;;4898546;28;20030;-87
2022/01/18 13:45:36;;;;;;;45.55;19.38;;;10.30;99.90;;;;;;4933827;28;20112;-88
2022/01/18 13:48:08;;;;;;;52.97;23.25;;;10.30;99.90;;;;;;4929694;28;20035;-87
2022/01/18 13:50:47;;;;;;;47.00;18.80;;;10.20;99.90;;;;;;4940199;28;20039;-88
2022/01/18 13:53:34;;;;;;;49.17;20.58;;;10.10;99.90;;;;;;4931575;28;20031;-87
2022/01/18 13:56:13;;;;;;;56.58;24.90;;;10.20;99.90;;;;;;4933084;28;20093;-88
2022/01/18 13:58:46;;;;;;;54.70;24.08;;;10.20;99.90;;;;;;4939916;28;20035;-88
2022/01/18 14:01:26;;;;;;;55.97;24.55;;;10.20;99.90;;;;;;4921742;28;20034;-88
2022/01/18 14:03:53;;;;;;;49.60;20.95;;;10.20;99.90;;;;;;4916750;28;20032;-88
2022/01/18 14:06:19;;;;;;;56.70;21.83;;;10.20;99.90;;;;;;4934238;28;20045;-88
2022/01/18 14:08:49;;;;;;;59.38;22.50;;;10.10;99.90;;;;;;4934770;28;20062;-88
2022/01/18 14:11:19;;;;;;;65.13;23.73;;;10.10;99.90;;;;;;4927730;28;20034;-87
2022/01/18 14:13:47;;;;;;;55.63;24.15;;;10.10;99.90;;;;;;4909874;28;20583;-88
2022/01/18 14:16:28;;;;;;;49.67;21.67;;;10.20;99.90;;;;;;4902143;28;21407;-88
2022/01/18 14:19:02;;;;;;;66.72;26.42;;;10.20;99.90;;;;;;4906101;28;20031;-88
2022/01/18 14:21:32;;;;;;;67.85;26.80;;;10.20;99.90;;;;;;4894407;29;20083;-88
2022/01/18 14:24:15;;;;;;;65.55;26.92;;;10.10;99.90;;;;;;4908183;28;20032;-88
2022/01/18 14:27:04;;;;;;;64.38;26.45;;;10.10;99.90;;;;;;4920204;28;20767;-88
2022/01/18 14:29:44;;;;;;;67.05;25.52;;;10.10;99.90;;;;;;4925915;28;20031;-88
2022/01/18 14:32:13;;;;;;;64.72;26.85;;;10.00;99.90;;;;;;4925257;28;20032;-88
2022/01/18 14:34:43;;;;;;;58.97;25.80;;;10.00;99.90;;;;;;4928726;28;20031;-87
2022/01/18 14:37:12;;;;;;;62.33;25.48;;;10.00;99.90;;;;;;4934041;28;20051;-88
2022/01/18 14:40:00;;;;;;;48.17;19.83;;;9.90;99.90;;;;;;4914943;28;20042;-88
2022/01/18 14:42:32;;;;;;;42.95;18.98;;;10.00;99.90;;;;;;4917178;28;20034;-88
2022/01/18 14:45:19;;;;;;;57.67;21.90;;;10.00;99.90;;;;;;4928785;28;20042;-88
2022/01/18 14:47:45;;;;;;;49.60;20.77;;;10.00;99.90;;;;;;4933104;28;20087;-89